Time;durP1;ratioP1;P1;durP2;ratioP2;P2;SDS_P1;SDS_P2;PMS_P1;PMS_P2;Temp;Humidity;BMP_temperature;BMP_pressure;BME280_temperature;BME280_humidity;BME280_pressure;Samples;Min_cycle;Max_cycle;Signal;HPM_P1;HPM_P2
2021/08/02 00:01:51;;;;;;;1.35;1.25;;;;;;;16.36;78.46;96333.09;1790473;78;25732;-86
2021/08/02 00:04:22;;;;;;;1.05;0.93;;;;;;;16.35;78.44;96332.83;1829366;76;25253;-87
2021/08/02 00:06:52;;;;;;;1.30;1.20;;;;;;;16.36;78.37;96336.64;1832867;77;25677;-86
2021/08/02 00:09:24;;;;;;;1.52;0.98;;;;;;;16.31;78.38;96347.52;1832531;76;25903;-84
2021/08/02 00:12:11;;;;;;;2.15;1.05;;;;;;;16.32;78.44;96346.98;1832104;76;28274;-85
2021/08/02 00:14:41;;;;;;;1.60;0.90;;;;;;;16.23;78.54;96358.16;1832476;76;25672;-86
2021/08/02 00:17:07;;;;;;;3.27;1.35;;;;;;;16.13;78.71;96367.96;1832431;77;25681;-88
2021/08/02 00:19:35;;;;;;;1.12;1.02;;;;;;;16.10;78.77;96366.31;1831394;77;26644;-84
2021/08/02 00:22:02;;;;;;;1.30;1.20;;;;;;;16.09;78.99;96369.58;1801394;77;26274;-84
2021/08/02 00:24:29;;;;;;;1.45;1.35;;;;;;;16.08;79.01;96374.75;1832448;77;27364;-87
2021/08/02 00:26:57;;;;;;;1.45;1.00;;;;;;;16.06;79.10;96375.56;1832164;77;25653;-88
2021/08/02 00:29:25;;;;;;;1.30;1.20;;;;;;;16.09;79.12;96383.73;1818343;77;25751;-87
2021/08/02 00:31:52;;;;;;;1.45;1.22;;;;;;;16.07;79.21;96379.92;1821145;76;25846;-86
2021/08/02 00:34:19;;;;;;;1.87;1.25;;;;;;;16.08;79.19;96372.57;1813497;76;25722;-85
2021/08/02 00:36:54;;;;;;;2.02;1.20;;;;;;;16.12;79.16;96384.56;1799847;77;27378;-85
2021/08/02 00:39:29;;;;;;;1.60;1.50;;;;;;;16.12;79.07;96385.92;1799109;77;25685;-84
2021/08/02 00:42:07;;;;;;;3.40;1.02;;;;;;;16.13;79.11;96391.10;1826355;77;25841;-86
2021/08/02 00:45:08;;;;;;;1.62;1.12;;;;;;;16.16;79.05;96396.02;1834087;77;25810;-86
2021/08/02 00:47:58;;;;;;;0.95;0.95;;;;;;;16.18;79.01;96389.73;1816036;76;25677;-84
2021/08/02 00:50:32;;;;;;;1.37;1.10;;;;;;;16.23;79.05;96397.63;1812755;76;28204;-86
2021/08/02 00:53:10;;;;;;;3.47;1.10;;;;;;;16.25;79.20;96400.37;1832353;77;25735;-85
2021/08/02 00:55:41;;;;;;;1.22;1.12;;;;;;;16.20;79.00;96394.91;1812915;76;25768;-86
2021/08/02 00:58:12;;;;;;;1.25;1.00;;;;;;;16.16;79.09;96396.02;1808772;76;26546;-85
2021/08/02 01:00:41;;;;;;;2.15;1.00;;;;;;;16.09;79.08;96396.80;1832515;77;25747;-86
2021/08/02 01:03:10;;;;;;;1.37;0.90;;;;;;;16.07;79.25;96398.97;1836521;77;27446;-86
2021/08/02 01:05:41;;;;;;;1.27;1.00;;;;;;;16.09;79.37;96403.61;1832352;76;25828;-85
2021/08/02 01:08:14;;;;;;;1.12;1.02;;;;;;;16.09;79.25;96398.17;1832431;77;25720;-83
2021/08/02 01:10:47;;;;;;;0.98;0.93;;;;;;;16.05;79.19;96396.27;1831488;76;26298;-85
2021/08/02 01:13:17;;;;;;;3.08;0.95;;;;;;;16.03;79.02;96391.09;1813266;76;25715;-84
2021/08/02 01:15:47;;;;;;;0.80;0.80;;;;;;;16.02;79.20;96393.55;1819243;76;27551;-85
2021/08/02 01:18:14;;;;;;;1.10;0.75;;;;;;;15.97;79.08;96398.14;1799501;76;25754;-85
2021/08/02 01:20:48;;;;;;;2.62;0.78;;;;;;;15.98;79.09;96401.14;1816801;77;25815;-83
2021/08/02 01:23:17;;;;;;;1.05;0.90;;;;;;;15.97;78.88;96401.69;1826537;77;25740;-84
2021/08/02 01:25:56;;;;;;;1.98;0.95;;;;;;;15.96;78.87;96399.23;1823191;77;25656;-84
2021/08/02 01:28:28;;;;;;;3.85;0.90;;;;;;;15.96;78.80;96401.41;1824856;77;27436;-85
2021/08/02 01:30:57;;;;;;;0.90;0.88;;;;;;;15.87;78.85;96406.30;1828683;77;33222;-85
2021/08/02 01:33:30;;;;;;;1.15;0.80;;;;;;;15.81;78.98;96403.58;1832254;77;25736;-83
2021/08/02 01:36:00;;;;;;;1.12;0.65;;;;;;;15.77;78.92;96398.94;1832180;77;26501;-83
2021/08/02 01:38:30;;;;;;;0.95;0.85;;;;;;;15.75;79.04;96410.63;1828139;77;25799;-83
2021/08/02 01:40:57;;;;;;;1.75;0.95;;;;;;;15.71;79.07;96409.52;1804049;78;27378;-83
2021/08/02 01:43:25;;;;;;;1.42;0.93;;;;;;;15.66;79.09;96408.98;1796769;77;25779;-83
2021/08/02 01:46:18;;;;;;;1.07;0.98;;;;;;;15.65;79.12;96409.23;1813865;78;26315;-83
2021/08/02 01:49:10;;;;;;;1.90;1.40;;;;;;;15.59;78.85;96415.73;1821733;76;25792;-81
2021/08/02 01:51:46;;;;;;;;;;;;;;;15.53;78.87;96422.22;1832551;78;25895;-84
2021/08/02 01:54:56;;;;;;;3.25;1.50;;;;;;;15.49;78.88;96424.11;1829818;76;28255;-83
2021/08/02 01:57:53;;;;;;;3.42;1.77;;;;;;;15.47;78.89;96433.06;1795183;78;25829;-86
2021/08/02 02:00:20;;;;;;;1.70;1.60;;;;;;;15.43;78.75;96439.32;1821431;78;25780;-90
2021/08/02 02:03:12;;;;;;;1.92;1.70;;;;;;;15.45;78.74;96445.31;1795942;78;26489;-82
2021/08/02 02:05:44;;;;;;;3.00;2.37;;;;;;;15.44;78.61;96444.50;1814012;78;25748;-86
2021/08/02 02:08:27;;;;;;;4.50;2.52;;;;;;;15.34;78.49;96455.30;1801516;79;28250;-87
2021/08/02 02:10:58;;;;;;;4.08;3.22;;;;;;;15.25;78.40;96458.25;1801054;79;25804;-86
2021/08/02 02:13:38;;;;;;;5.70;3.47;;;;;;;15.22;78.37;96454.70;1801408;79;25792;-86
2021/08/02 02:16:06;;;;;;;4.28;3.60;;;;;;;15.23;78.35;96459.59;1798442;78;26525;-85
2021/08/02 02:18:37;;;;;;;4.17;3.62;;;;;;;15.19;78.25;96452.52;1801498;79;25764;-85
2021/08/02 02:21:06;;;;;;;6.45;4.50;;;;;;;15.16;78.31;96454.41;1801468;79;27412;-81
2021/08/02 02:23:34;;;;;;;6.22;4.15;;;;;;;15.12;78.31;96469.59;1801469;79;25757;-82
2021/08/02 02:26:01;;;;;;;5.12;4.62;;;;;;;15.11;78.35;96463.87;1801421;79;25800;-81
2021/08/02 02:28:28;;;;;;;4.92;4.42;;;;;;;15.07;78.30;96465.50;1801418;79;25884;-80
2021/08/02 02:30:56;;;;;;;7.78;4.58;;;;;;;15.06;78.38;96467.40;1801379;79;26621;-80
2021/08/02 02:33:24;;;;;;;7.62;4.62;;;;;;;15.05;78.40;96478.53;1817658;78;27946;-80
2021/08/02 02:35:52;;;;;;;4.67;4.28;;;;;;;15.04;78.44;96474.17;1828394;77;26579;-80
2021/08/02 02:38:19;;;;;;;5.20;4.28;;;;;;;14.99;78.50;96483.63;1809866;78;25790;-83
2021/08/02 02:40:47;;;;;;;5.28;4.45;;;;;;;14.98;78.64;96488.79;1795952;76;26581;-79
2021/08/02 02:43:15;;;;;;;8.73;5.42;;;;;;;15.00;78.77;96493.42;1841044;77;25241;-81
2021/08/02 02:45:44;;;;;;;7.50;5.33;;;;;;;14.96;78.89;96496.41;1841236;77;27376;-79
2021/08/02 02:48:15;;;;;;;5.85;5.10;;;;;;;14.88;78.86;96507.73;1841099;76;25683;-79
2021/08/02 02:50:45;;;;;;;5.87;4.92;;;;;;;14.80;78.96;96510.41;1841282;77;26296;-82
2021/08/02 02:53:13;;;;;;;7.37;4.75;;;;;;;14.81;79.11;96515.30;1796211;75;25743;-80
2021/08/02 02:55:42;;;;;;;6.80;5.08;;;;;;;14.85;79.21;96522.69;1821163;77;25838;-79
2021/08/02 02:58:09;;;;;;;8.30;5.15;;;;;;;14.91;79.15;96520.81;1832026;76;27343;-80
2021/08/02 03:00:36;;;;;;;6.05;4.95;;;;;;;14.91;79.12;96524.89;1817680;77;25721;-79
2021/08/02 03:03:05;;;;;;;6.60;4.75;;;;;;;14.93;79.15;96518.66;1808076;77;25716;-79
2021/08/02 03:05:35;;;;;;;6.87;5.08;;;;;;;14.93;79.24;96528.99;1841281;77;25942;-80
2021/08/02 03:08:04;;;;;;;7.92;5.00;;;;;;;14.93;79.23;96528.17;1838341;77;25226;-81
2021/08/02 03:10:31;;;;;;;5.40;4.90;;;;;;;15.00;79.09;96530.11;1801333;76;27456;-80
2021/08/02 03:12:58;;;;;;;7.92;4.72;;;;;;;15.04;78.93;96532.06;1829346;77;25758;-81
2021/08/02 03:15:24;;;;;;;7.35;5.22;;;;;;;15.07;78.84;96530.73;1835943;77;25919;-80
2021/08/02 03:17:51;;;;;;;7.25;5.60;;;;;;;15.03;78.88;96538.58;1815229;77;26345;-80
2021/08/02 03:20:18;;;;;;;9.25;6.08;;;;;;;14.93;78.75;96531.71;1801957;77;25780;-80
2021/08/02 03:22:56;;;;;;;8.35;5.83;;;;;;;14.87;78.92;96535.98;1841150;77;26620;-80
2021/08/02 03:25:55;;;;;;;7.55;6.55;;;;;;;14.80;78.99;96533.50;1841030;77;25635;-83
2021/08/02 03:28:37;;;;;;;7.42;6.28;;;;;;;14.77;79.04;96538.91;1841300;77;25660;-81
2021/08/02 03:31:06;;;;;;;10.65;6.17;;;;;;;14.81;79.09;96547.91;1840876;77;25739;-81
2021/08/02 03:33:40;;;;;;;7.55;6.47;;;;;;;14.83;79.04;96542.50;1841388;77;25738;-79
2021/08/02 03:36:15;;;;;;;7.70;6.72;;;;;;;14.81;78.91;96539.22;1841240;76;27530;-79
2021/08/02 03:38:46;;;;;;;7.30;6.12;;;;;;;14.84;78.90;96541.42;1838949;77;25701;-81
2021/08/02 03:41:14;;;;;;;8.88;6.55;;;;;;;14.88;78.80;96548.50;1814105;77;25845;-80
2021/08/02 03:43:43;;;;;;;7.65;6.20;;;;;;;14.96;78.72;96561.09;1844661;77;25791;-79
2021/08/02 03:46:12;;;;;;;11.85;6.58;;;;;;;14.99;78.58;96560.55;1816832;77;25921;-80
2021/08/02 03:48:39;;;;;;;7.10;6.40;;;;;;;15.04;78.45;96563.86;1815010;77;27477;-79
2021/08/02 03:51:07;;;;;;;8.58;6.30;;;;;;;15.06;78.39;96565.78;1799519;76;25888;-79
2021/08/02 03:53:45;;;;;;;7.85;5.92;;;;;;;15.11;78.38;96569.88;1832672;77;25850;-79
2021/08/02 03:56:15;;;;;;;8.23;5.95;;;;;;;15.13;78.22;96576.70;1832552;76;26526;-79
2021/08/02 03:58:41;;;;;;;9.23;6.05;;;;;;;15.16;78.19;96574.55;1806122;77;25638;-83
2021/08/02 04:01:09;;;;;;;9.45;5.97;;;;;;;15.17;77.98;96577.01;1826581;76;27342;-82
2021/08/02 04:03:36;;;;;;;6.40;5.78;;;;;;;15.17;77.73;96578.37;1832553;76;25668;-83
2021/08/02 04:06:03;;;;;;;11.70;6.20;;;;;;;15.13;77.61;96582.67;1832499;76;25221;-81
2021/08/02 04:08:29;;;;;;;7.92;5.83;;;;;;;15.14;77.61;96591.11;1814132;77;25689;-79
2021/08/02 04:10:56;;;;;;;8.25;6.37;;;;;;;15.17;77.66;96587.88;1795020;77;25811;-78
2021/08/02 04:13:23;;;;;;;6.45;5.80;;;;;;;15.21;77.65;96590.38;1791095;76;27339;-78
2021/08/02 04:15:51;;;;;;;9.08;5.62;;;;;;;15.23;77.53;96594.16;1832592;77;25782;-80
2021/08/02 04:18:17;;;;;;;8.83;5.60;;;;;;;15.24;77.37;96595.27;1799717;77;25740;-80
2021/08/02 04:20:45;;;;;;;7.58;5.70;;;;;;;15.27;77.27;96596.11;1832527;77;26440;-79
2021/08/02 04:23:12;;;;;;;8.20;5.47;;;;;;;15.26;77.32;96595.01;1801986;77;25769;-81
2021/08/02 04:25:39;;;;;;;8.05;5.40;;;;;;;15.26;77.30;96595.83;1831089;76;27364;-79
2021/08/02 04:28:06;;;;;;;6.85;5.53;;;;;;;15.28;77.38;96599.65;1832405;77;25748;-79
2021/08/02 04:30:32;;;;;;;6.75;5.35;;;;;;;15.28;77.25;96604.55;1832497;76;25652;-79
2021/08/02 04:32:59;;;;;;;6.28;5.28;;;;;;;15.30;77.39;96605.66;1832539;77;25795;-82
2021/08/02 04:35:26;;;;;;;5.90;5.30;;;;;;;15.31;77.33;96608.12;1832622;76;25703;-81
2021/08/02 04:37:52;;;;;;;6.03;5.50;;;;;;;15.33;77.40;96616.84;1832625;76;27396;-79
2021/08/02 04:40:19;;;;;;;9.18;5.62;;;;;;;15.34;77.38;96616.27;1832532;77;25794;-78
2021/08/02 04:42:45;;;;;;;5.47;4.90;;;;;;;15.37;77.18;96619.30;1817963;77;25776;-79
2021/08/02 04:45:13;;;;;;;5.30;4.80;;;;;;;15.40;76.92;96624.22;1814125;78;25735;-81
2021/08/02 04:47:39;;;;;;;7.85;5.08;;;;;;;15.42;76.84;96630.22;1789126;76;25827;-80
2021/08/02 04:50:07;;;;;;;6.45;4.40;;;;;;;15.45;76.77;96632.42;1810520;76;27996;-82
2021/08/02 04:52:33;;;;;;;5.05;4.55;;;;;;;15.48;76.67;96636.50;1832411;77;25723;-79
2021/08/02 04:55:00;;;;;;;7.60;4.35;;;;;;;15.49;76.76;96643.05;1832530;76;25722;-79
2021/08/02 04:57:26;;;;;;;7.45;4.33;;;;;;;15.50;76.81;96647.41;1832387;77;25747;-80
2021/08/02 04:59:53;;;;;;;4.50;3.87;;;;;;;15.52;76.57;96646.33;1816027;76;25236;-79
2021/08/02 05:02:20;;;;;;;6.90;4.30;;;;;;;15.53;76.45;96647.97;1816714;76;27408;-80
2021/08/02 05:04:46;;;;;;;5.00;4.08;;;;;;;15.53;76.34;96647.44;1820018;76;25760;-78
2021/08/02 05:07:13;;;;;;;3.75;3.45;;;;;;;15.55;76.21;96656.19;1785657;78;25671;-81
2021/08/02 05:09:39;;;;;;;4.17;3.33;;;;;;;15.55;75.87;96662.16;1823416;76;26495;-80
2021/08/02 05:12:07;;;;;;;4.40;3.45;;;;;;;15.50;75.67;96665.09;1826029;77;25704;-79
2021/08/02 05:14:33;;;;;;;3.02;2.77;;;;;;;15.49;75.58;96668.88;1804428;77;27354;-79
2021/08/02 05:17:00;;;;;;;4.70;3.00;;;;;;;15.49;75.48;96676.22;1828050;76;25737;-79
2021/08/02 05:19:27;;;;;;;9.98;3.67;;;;;;;15.49;75.40;96675.69;1808622;76;25854;-78
2021/08/02 05:21:53;;;;;;;5.53;3.37;;;;;;;15.50;75.76;96675.14;1824157;76;26472;-81
2021/08/02 05:24:20;;;;;;;6.17;3.17;;;;;;;15.55;75.93;96678.48;1832530;76;25729;-78
2021/08/02 05:26:46;;;;;;;6.45;3.40;;;;;;;15.58;75.72;96678.77;1832379;77;27414;-79
2021/08/02 05:29:13;;;;;;;6.75;3.27;;;;;;;15.59;75.52;96683.66;1832392;76;26346;-79
2021/08/02 05:31:40;;;;;;;4.50;3.40;;;;;;;15.58;75.56;96679.34;1832439;77;25753;-79
2021/08/02 05:34:06;;;;;;;4.97;2.83;;;;;;;15.57;75.45;96683.13;1820983;77;25767;-78
2021/08/02 05:36:33;;;;;;;3.67;3.20;;;;;;;15.57;75.39;96681.77;1811532;78;25303;-79
2021/08/02 05:39:00;;;;;;;4.45;3.47;;;;;;;15.57;75.47;96690.75;1832552;77;28172;-79
2021/08/02 05:41:26;;;;;;;3.50;3.20;;;;;;;15.58;75.31;96687.50;1833694;77;25674;-79
2021/08/02 05:43:53;;;;;;;6.62;3.00;;;;;;;15.57;75.19;96693.47;1830785;77;26292;-78
2021/08/02 05:46:19;;;;;;;3.62;2.77;;;;;;;15.56;75.16;96696.45;1829978;78;25819;-82
2021/08/02 05:48:47;;;;;;;6.72;3.17;;;;;;;15.57;75.13;96698.09;1829854;77;25752;-79
2021/08/02 05:51:14;;;;;;;5.22;2.90;;;;;;;15.57;75.14;96699.45;1829590;76;27487;-79
2021/08/02 05:53:40;;;;;;;3.52;3.22;;;;;;;15.58;75.32;96702.45;1829750;78;25752;-79
2021/08/02 05:56:07;;;;;;;4.67;3.02;;;;;;;15.63;75.27;96706.55;1797276;77;25724;-79
2021/08/02 05:58:33;;;;;;;3.83;2.90;;;;;;;15.67;75.05;96709.05;1829878;78;25744;-79
2021/08/02 06:01:00;;;;;;;5.08;2.60;;;;;;;15.69;74.96;96710.98;1829929;77;25763;-79
2021/08/02 06:03:27;;;;;;;6.58;3.15;;;;;;;15.71;74.73;96714.23;1829990;78;28192;-81
2021/08/02 06:05:53;;;;;;;5.70;2.87;;;;;;;15.72;74.67;96725.39;1829834;78;25724;-80
2021/08/02 06:08:20;;;;;;;3.22;2.77;;;;;;;15.70;74.64;96722.11;1829830;78;25685;-79
2021/08/02 06:10:46;;;;;;;4.50;2.75;;;;;;;15.68;74.64;96730.56;1820759;77;26653;-80
2021/08/02 06:13:13;;;;;;;2.62;2.40;;;;;;;15.73;74.71;96732.48;1829946;76;25211;-79
2021/08/02 06:15:40;;;;;;;3.83;2.05;;;;;;;15.76;74.50;96734.69;1829894;76;28352;-80
2021/08/02 06:18:06;;;;;;;5.60;2.17;;;;;;;15.80;74.27;96735.81;1829862;78;25838;-79
2021/08/02 06:20:33;;;;;;;4.05;2.45;;;;;;;15.84;74.08;96732.30;1829826;77;25707;-80
2021/08/02 06:22:59;;;;;;;4.40;3.52;;;;;;;15.87;74.07;96745.92;1829847;78;26493;-80
2021/08/02 06:25:26;;;;;;;4.60;2.52;;;;;;;15.87;74.12;96750.01;1789057;76;25721;-80
2021/08/02 06:27:53;;;;;;;3.65;2.55;;;;;;;15.93;74.21;96750.88;1805998;78;27596;-80
2021/08/02 06:30:19;;;;;;;4.33;2.52;;;;;;;15.96;74.25;96753.87;1797196;76;25704;-80
2021/08/02 06:32:46;;;;;;;4.42;3.00;;;;;;;15.99;74.33;96753.36;1829813;77;25814;-83
2021/08/02 06:35:13;;;;;;;7.78;3.45;;;;;;;15.94;74.63;96754.67;1829710;78;25669;-81
2021/08/02 06:37:41;;;;;;;4.28;3.10;;;;;;;15.93;74.56;96757.15;1829889;78;25681;-82
2021/08/02 06:40:13;;;;;;;5.37;3.35;;;;;;;15.94;74.63;96754.67;1829778;78;28456;-81
2021/08/02 06:42:40;;;;;;;4.90;4.05;;;;;;;15.95;74.73;96759.58;1830224;76;26275;-82
2021/08/02 06:45:09;;;;;;;5.35;3.95;;;;;;;15.94;75.04;96757.40;1832230;77;25680;-81
2021/08/02 06:47:36;;;;;;;7.45;3.45;;;;;;;15.98;75.21;96762.61;1799520;77;26474;-82
2021/08/02 06:50:03;;;;;;;4.12;3.60;;;;;;;16.02;75.18;96758.84;1832441;77;25705;-83
2021/08/02 06:52:30;;;;;;;2.98;2.67;;;;;;;16.04;75.15;96758.86;1832094;77;27383;-81
2021/08/02 06:54:57;;;;;;;5.28;3.77;;;;;;;16.03;75.21;96761.30;1832293;77;25745;-83
2021/08/02 06:57:23;;;;;;;3.47;2.90;;;;;;;15.97;75.09;96767.77;1832546;77;25820;-83
2021/08/02 06:59:56;;;;;;;4.03;3.30;;;;;;;16.04;75.40;96768.92;1832394;77;26765;-83
2021/08/02 07:02:24;;;;;;;4.33;3.42;;;;;;;16.11;75.37;96771.69;1832095;76;25290;-83
2021/08/02 07:04:51;;;;;;;3.50;2.95;;;;;;;16.13;75.44;96776.34;1832430;76;27646;-85
2021/08/02 07:07:17;;;;;;;4.72;4.22;;;;;;;16.19;75.36;96773.91;1831382;76;25689;-87
2021/08/02 07:09:44;;;;;;;4.92;3.10;;;;;;;16.25;75.24;96776.14;1818359;76;25828;-85
2021/08/02 07:12:10;;;;;;;3.27;2.92;;;;;;;16.22;75.16;96773.94;1800869;76;25882;-85
2021/08/02 07:14:37;;;;;;;3.62;3.33;;;;;;;16.26;75.14;96779.15;1803154;77;25741;-85
2021/08/02 07:17:04;;;;;;;4.75;3.47;;;;;;;16.27;75.09;96772.62;1829171;77;27362;-84
2021/08/02 07:19:30;;;;;;;4.83;3.45;;;;;;;16.29;75.03;96775.09;1832352;77;25740;-84
2021/08/02 07:21:57;;;;;;;3.60;3.25;;;;;;;16.28;75.22;96774.80;1832398;76;25745;-84
2021/08/02 07:24:23;;;;;;;4.72;3.47;;;;;;;16.31;75.28;96772.90;1832631;77;25733;-87
2021/08/02 07:26:50;;;;;;;4.10;3.33;;;;;;;16.38;75.29;96765.33;1833122;77;25728;-87
2021/08/02 07:29:17;;;;;;;4.30;2.75;;;;;;;16.38;74.73;96772.14;1838897;77;27458;-85
2021/08/02 07:31:43;;;;;;;3.20;2.60;;;;;;;16.39;74.65;96773.78;1801375;77;25280;-85
2021/08/02 07:34:10;;;;;;;3.45;3.02;;;;;;;16.39;74.51;96768.34;1831237;77;25753;-85
2021/08/02 07:36:36;;;;;;;3.55;3.00;;;;;;;16.35;74.35;96770.76;1805587;77;26445;-84
2021/08/02 07:39:03;;;;;;;3.15;2.77;;;;;;;16.35;74.54;96778.11;1818910;77;25665;-82
2021/08/02 07:41:30;;;;;;;3.35;2.62;;;;;;;16.37;74.48;96780.03;1808608;78;27517;-81
2021/08/02 07:43:57;;;;;;;4.20;3.22;;;;;;;16.35;74.49;96776.74;1841654;76;25747;-82
2021/08/02 07:46:24;;;;;;;3.85;2.85;;;;;;;16.38;74.57;96783.03;1829950;77;25748;-82
2021/08/02 07:48:52;;;;;;;5.17;3.17;;;;;;;16.37;74.44;96771.86;1829865;77;25992;-82
2021/08/02 07:51:19;;;;;;;5.08;3.10;;;;;;;16.41;74.51;96779.80;1819494;77;25815;-82
2021/08/02 07:53:46;;;;;;;3.10;2.75;;;;;;;16.45;74.50;96778.16;1818210;77;27605;-84
2021/08/02 07:56:13;;;;;;;4.90;2.83;;;;;;;16.54;74.29;96780.69;1818631;76;25878;-82
2021/08/02 07:58:39;;;;;;;3.92;3.50;;;;;;;16.61;74.14;96785.34;1808983;76;25717;-82
2021/08/02 08:01:06;;;;;;;4.80;2.98;;;;;;;16.68;73.99;96780.50;1829778;77;25714;-81
2021/08/02 08:03:32;;;;;;;3.75;3.27;;;;;;;16.75;73.93;96780.27;1808423;78;25709;-81
2021/08/02 08:05:59;;;;;;;3.70;3.37;;;;;;;16.80;74.08;96779.73;1819288;76;27504;-81
2021/08/02 08:08:26;;;;;;;3.55;2.75;;;;;;;16.87;74.34;96787.69;1829755;76;25706;-81
2021/08/02 08:10:52;;;;;;;4.10;3.52;;;;;;;16.89;74.13;96776.80;1829948;77;25689;-81
2021/08/02 08:13:19;;;;;;;4.85;4.15;;;;;;;16.98;74.03;96782.55;1834259;76;25755;-84
2021/08/02 08:15:46;;;;;;;4.50;4.05;;;;;;;17.06;73.71;96781.20;1815440;76;25304;-82
2021/08/02 08:18:12;;;;;;;5.08;4.00;;;;;;;17.14;73.45;96780.70;1797460;77;27328;-81
2021/08/02 08:20:39;;;;;;;4.03;3.62;;;;;;;17.21;73.36;96775.80;1816679;78;25752;-82
2021/08/02 08:23:06;;;;;;;4.47;4.08;;;;;;;17.31;73.30;96786.73;1829721;77;26383;-82
2021/08/02 08:25:33;;;;;;;4.22;3.80;;;;;;;17.36;73.00;96788.12;1829866;77;26358;-81
2021/08/02 08:27:59;;;;;;;7.62;4.78;;;;;;;17.40;72.94;96797.39;1829942;76;25744;-83
2021/08/02 08:30:27;;;;;;;5.08;4.35;;;;;;;17.46;72.92;96796.88;1829908;76;28019;-83
2021/08/02 08:32:54;;;;;;;6.92;4.42;;;;;;;17.50;72.56;96802.07;1827765;76;25868;-81
2021/08/02 08:35:21;;;;;;;7.05;4.35;;;;;;;17.47;72.31;96810.25;1830839;76;25725;-84
2021/08/02 08:37:49;;;;;;;6.50;5.53;;;;;;;17.47;72.20;96814.34;1829950;76;25649;-81
2021/08/02 08:40:16;;;;;;;6.50;5.90;;;;;;;17.46;72.15;96814.06;1829855;78;25739;-87
2021/08/02 08:42:43;;;;;;;7.00;6.40;;;;;;;17.46;71.89;96814.06;1797155;77;27610;-81
2021/08/02 08:45:11;;;;;;;7.08;6.47;;;;;;;17.44;71.59;96817.59;1831380;76;25750;-81
2021/08/02 08:47:37;;;;;;;7.05;6.45;;;;;;;17.46;71.67;96808.60;1832503;77;25604;-81
2021/08/02 08:50:07;;;;;;;7.60;6.25;;;;;;;17.50;71.82;96816.53;1815714;78;25851;-82
2021/08/02 08:52:36;;;;;;;7.53;6.83;;;;;;;17.57;71.67;96821.17;1827346;76;25752;-82
2021/08/02 08:55:10;;;;;;;8.23;6.90;;;;;;;17.63;71.72;96817.38;1832488;77;27346;-81
2021/08/02 08:57:37;;;;;;;7.55;6.75;;;;;;;17.72;71.99;96805.95;1832045;77;26414;-82
2021/08/02 09:00:07;;;;;;;7.78;7.08;;;;;;;17.93;72.37;96809.78;1832491;77;25832;-80
2021/08/02 09:02:34;;;;;;;8.05;6.60;;;;;;;18.03;71.81;96801.31;1832428;77;26499;-80
2021/08/02 09:05:03;;;;;;;6.85;6.25;;;;;;;18.03;71.75;96805.41;1825582;76;25727;-80
2021/08/02 09:07:39;;;;;;;7.30;6.60;;;;;;;18.07;71.61;96800.51;1829252;77;27373;-82
2021/08/02 09:10:10;;;;;;;8.35;6.85;;;;;;;18.15;71.40;96797.22;1824162;77;25790;-83
2021/08/02 09:12:52;;;;;;;7.33;6.62;;;;;;;18.32;71.63;96800.49;1828917;76;25799;-83
2021/08/02 09:15:46;;;;;;;7.83;7.07;;;;;;;18.38;71.14;96797.19;1832804;77;26372;-83
2021/08/02 09:18:22;;;;;;;7.40;6.25;;;;;;;18.51;70.87;96791.70;1832168;77;25222;-81
2021/08/02 09:21:11;;;;;;;6.75;6.15;;;;;;;18.97;71.12;96791.86;1831925;77;27545;-82
2021/08/02 09:23:50;;;;;;;7.17;6.58;;;;;;;19.41;71.09;96787.84;1832403;77;25812;-82
2021/08/02 09:26:29;;;;;;;6.90;6.30;;;;;;;19.62;71.04;96791.29;1832264;77;26306;-82
2021/08/02 09:28:56;;;;;;;6.30;5.78;;;;;;;19.78;70.19;96781.88;1798399;76;25795;-81
2021/08/02 09:31:38;;;;;;;7.42;6.15;;;;;;;20.03;69.50;96791.00;1808091;77;25707;-82
2021/08/02 09:34:08;;;;;;;7.83;6.17;;;;;;;20.08;69.58;96794.50;1829625;76;28108;-81
2021/08/02 09:36:46;;;;;;;6.80;6.10;;;;;;;20.06;68.95;96783.56;1832297;76;25707;-80
2021/08/02 09:39:15;;;;;;;8.05;6.00;;;;;;;20.18;69.09;96790.03;1799425;77;25743;-81
2021/08/02 09:41:44;;;;;;;6.78;6.10;;;;;;;20.36;68.69;96792.11;1832539;77;25843;-82
2021/08/02 09:44:23;;;;;;;6.70;6.12;;;;;;;20.56;68.93;96800.67;1830437;76;25683;-82
2021/08/02 09:46:59;;;;;;;6.12;5.58;;;;;;;21.17;67.69;96804.37;1802524;78;27496;-82
2021/08/02 09:49:46;;;;;;;5.95;5.55;;;;;;;21.17;67.69;96804.37;1816056;77;25683;-82
2021/08/02 09:52:14;;;;;;;7.17;5.72;;;;;;;21.14;67.22;96800.02;1815661;77;25704;-82
2021/08/02 09:54:41;;;;;;;6.28;5.78;;;;;;;21.18;66.95;96804.66;1829737;78;25747;-80
2021/08/02 09:57:08;;;;;;;5.95;5.45;;;;;;;21.16;66.02;96806.84;1800687;78;25876;-80
2021/08/02 09:59:40;;;;;;;6.30;5.70;;;;;;;21.00;65.85;96810.09;1794123;78;28115;-81
2021/08/02 10:02:07;;;;;;;6.33;5.80;;;;;;;20.92;65.42;96806.05;1829925;77;25734;-80
2021/08/02 10:04:34;;;;;;;6.35;5.75;;;;;;;20.74;65.50;96806.81;1829891;77;25762;-81
2021/08/02 10:07:02;;;;;;;6.20;5.42;;;;;;;20.58;66.02;96808.88;1807024;78;25688;-80
2021/08/02 10:09:28;;;;;;;5.10;4.60;;;;;;;20.67;66.14;96803.02;1820696;78;26007;-83
2021/08/02 10:11:57;;;;;;;6.00;5.40;;;;;;;20.68;65.32;96802.47;1806372;78;26861;-83
2021/08/02 10:14:32;;;;;;;5.70;5.30;;;;;;;20.80;65.60;96800.96;1833877;77;26307;-86
2021/08/02 10:17:09;;;;;;;5.50;5.00;;;;;;;20.92;65.05;96806.05;1820591;77;25700;-86
2021/08/02 10:19:39;;;;;;;5.37;4.87;;;;;;;20.94;64.44;96803.83;1810134;77;26438;-86
2021/08/02 10:22:06;;;;;;;5.95;4.67;;;;;;;21.25;64.70;96803.50;1797154;77;25754;-84
2021/08/02 10:24:46;;;;;;;4.60;4.30;;;;;;;21.25;64.70;96803.50;1829738;76;27404;-84
2021/08/02 10:27:18;;;;;;;5.83;4.62;;;;;;;21.54;63.99;96801.45;1796998;77;25966;-86
2021/08/02 10:29:45;;;;;;;6.10;4.25;;;;;;;21.88;63.58;96807.53;1812922;77;32499;-84
2021/08/02 10:32:24;;;;;;;4.50;4.10;;;;;;;22.09;62.93;96802.59;1797047;77;25820;-85
2021/08/02 10:34:56;;;;;;;7.92;4.60;;;;;;;22.40;62.80;96784.19;1830053;76;25794;-83
2021/08/02 10:37:31;;;;;;;;;;;;;;;22.40;62.80;96784.19;1832523;76;27414;-85
2021/08/02 10:40:05;;;;;;;4.45;4.15;;;;;;;22.77;61.51;96802.52;1829662;77;25841;-90
2021/08/02 10:42:32;;;;;;;5.75;4.72;;;;;;;22.99;62.44;96792.44;1828381;78;25795;-84
2021/08/02 10:45:00;;;;;;;4.60;4.20;;;;;;;23.16;61.21;96806.98;1842471;77;25732;-85
2021/08/02 10:47:41;;;;;;;4.47;4.08;;;;;;;22.86;61.09;96810.32;1821322;77;25688;-85
2021/08/02 10:50:10;;;;;;;6.95;4.15;;;;;;;22.58;61.49;96800.61;1833575;77;27349;-86
2021/08/02 10:52:37;;;;;;;4.78;4.10;;;;;;;22.44;61.56;96801.17;1830109;78;25764;-92
2021/08/02 10:55:15;;;;;;;4.05;3.65;;;;;;;22.45;61.15;96801.42;1829977;77;25938;-90
2021/08/02 10:57:46;;;;;;;5.45;3.12;;;;;;;22.49;60.68;96796.94;1829949;76;25845;-89
2021/08/02 11:00:20;;;;;;;5.03;3.75;;;;;;;22.43;60.35;96799.53;1762864;78;25716;-85
2021/08/02 11:02:57;;;;;;;3.98;3.42;;;;;;;22.17;59.74;96798.33;1812818;77;27361;-84
2021/08/02 11:05:31;;;;;;;4.35;3.95;;;;;;;21.93;59.84;96789.61;1820991;78;25712;-82
2021/08/02 11:08:06;;;;;;;3.70;3.40;;;;;;;21.77;59.89;96799.73;1821095;78;25689;-85
2021/08/02 11:10:34;;;;;;;3.90;3.60;;;;;;;21.56;59.72;96796.48;1809696;78;25764;-82
2021/08/02 11:13:00;;;;;;;3.95;2.90;;;;;;;21.41;59.95;96802.17;1810133;78;25330;-88
2021/08/02 11:15:27;;;;;;;3.02;2.80;;;;;;;21.29;59.72;96804.53;1819625;78;27643;-84
2021/08/02 11:17:54;;;;;;;4.47;2.98;;;;;;;21.37;59.71;96803.90;1820237;78;25757;-89
2021/08/02 11:20:21;;;;;;;3.60;3.30;;;;;;;21.86;60.41;96790.52;1821025;78;25887;-86
2021/08/02 11:22:51;;;;;;;3.42;2.90;;;;;;;21.86;60.41;96790.52;1821078;78;25825;-90
2021/08/02 11:25:30;;;;;;;3.67;2.98;;;;;;;22.18;60.79;96793.09;1821086;78;25681;-84
2021/08/02 11:27:59;;;;;;;5.00;3.80;;;;;;;22.54;60.97;96791.91;1797657;78;27371;-81
2021/08/02 11:30:28;;;;;;;4.45;3.05;;;;;;;22.82;60.14;96788.09;1813432;78;26498;-88
2021/08/02 11:32:56;;;;;;;3.12;2.70;;;;;;;23.03;60.39;96786.34;1820966;78;25772;-84
2021/08/02 11:35:35;;;;;;;4.35;2.85;;;;;;;23.22;59.22;96782.34;1817727;78;25778;-88
2021/08/02 11:38:05;;;;;;;3.33;2.95;;;;;;;23.35;59.31;96783.45;1796085;78;25643;-89
2021/08/02 11:40:37;;;;;;;2.42;2.22;;;;;;;23.50;58.68;96785.06;1820905;78;27396;-86
2021/08/02 11:43:06;;;;;;;3.37;3.05;;;;;;;23.64;58.37;96778.44;1820713;78;25848;-87
2021/08/02 11:45:35;;;;;;;2.90;2.58;;;;;;;23.84;58.44;96777.13;1818075;78;25297;-85
2021/08/02 11:48:10;;;;;;;3.50;3.20;;;;;;;23.87;57.88;96780.66;1828740;78;26383;-86